Time;durP1;ratioP1;P1;durP2;ratioP2;P2;SDS_P1;SDS_P2;PMS_P1;PMS_P2;Temp;Humidity;BMP_temperature;BMP_pressure;BME280_temperature;BME280_humidity;BME280_pressure;Samples;Min_cycle;Max_cycle;Signal;HPM_P1;HPM_P2
2021/08/09 00:02:01;;;;;;;9.15;1.50;;;14.70;99.90;;;;;;5090164;28;20089;-68
2021/08/09 00:04:27;;;;;;;11.13;1.60;;;14.70;99.90;;;;;;5085204;28;20056;-68
2021/08/09 00:06:52;;;;;;;8.48;1.40;;;14.70;99.90;;;;;;5091204;28;20036;-68
2021/08/09 00:09:18;;;;;;;13.02;1.63;;;14.70;99.90;;;;;;5090337;28;20024;-68
2021/08/09 00:11:43;;;;;;;10.70;1.58;;;14.70;99.90;;;;;;5091133;28;20070;-68
2021/08/09 00:14:09;;;;;;;8.50;1.50;;;14.70;99.90;;;;;;5089991;28;20036;-67
2021/08/09 00:16:35;;;;;;;8.80;1.05;;;14.70;99.90;;;;;;5090720;28;20036;-67
2021/08/09 00:19:00;;;;;;;4.82;1.20;;;14.70;99.90;;;;;;5090615;28;20047;-68
2021/08/09 00:21:26;;;;;;;9.43;1.30;;;14.60;99.90;;;;;;5090210;28;20059;-68
2021/08/09 00:23:51;;;;;;;12.00;2.15;;;14.60;99.90;;;;;;5090698;28;20070;-68
2021/08/09 00:26:19;;;;;;;12.73;2.50;;;14.60;99.90;;;;;;5089730;28;20058;-68
2021/08/09 00:28:45;;;;;;;17.20;2.42;;;14.60;99.90;;;;;;5090384;28;20050;-68
2021/08/09 00:31:11;;;;;;;11.45;1.77;;;14.60;99.90;;;;;;5090210;28;20441;-69
2021/08/09 00:33:36;;;;;;;13.57;1.92;;;14.60;99.90;;;;;;5090418;28;20089;-68
2021/08/09 00:36:02;;;;;;;10.88;1.23;;;14.50;99.90;;;;;;5084303;28;20032;-69
2021/08/09 00:38:27;;;;;;;12.98;1.50;;;14.50;99.90;;;;;;5090542;28;20026;-68
2021/08/09 00:40:53;;;;;;;13.15;1.75;;;14.50;99.90;;;;;;5090208;28;20172;-68
2021/08/09 00:43:18;;;;;;;8.43;1.55;;;14.50;99.90;;;;;;5089556;28;20044;-68
2021/08/09 00:45:44;;;;;;;12.30;1.80;;;14.50;99.90;;;;;;5089560;28;20503;-68
2021/08/09 00:48:10;;;;;;;16.13;1.55;;;14.40;99.90;;;;;;5089344;28;20042;-69
2021/08/09 00:50:35;;;;;;;11.95;1.83;;;14.40;99.90;;;;;;5090050;28;20024;-68
2021/08/09 00:53:01;;;;;;;10.45;2.15;;;14.50;99.90;;;;;;5090019;28;20032;-68
2021/08/09 00:55:27;;;;;;;14.38;1.60;;;14.50;99.90;;;;;;5089461;28;20025;-68
2021/08/09 00:57:53;;;;;;;16.00;2.15;;;14.50;99.90;;;;;;5089895;28;20399;-68
2021/08/09 01:00:18;;;;;;;10.73;2.08;;;14.50;99.90;;;;;;5089434;28;20067;-68
2021/08/09 01:02:44;;;;;;;10.00;1.48;;;14.60;99.90;;;;;;5080589;28;20035;-68
2021/08/09 01:05:11;;;;;;;10.30;1.75;;;14.60;99.90;;;;;;5089354;28;21528;-69
2021/08/09 01:07:52;;;;;;;10.35;1.85;;;14.50;99.90;;;;;;5089471;28;20024;-68
2021/08/09 01:10:30;;;;;;;18.38;2.63;;;14.50;99.90;;;;;;5079431;28;20040;-69
2021/08/09 01:13:09;;;;;;;8.90;1.40;;;14.40;99.90;;;;;;5089919;28;20067;-69
2021/08/09 01:15:42;;;;;;;13.18;2.10;;;14.40;99.90;;;;;;5086163;28;20043;-69
2021/08/09 01:18:09;;;;;;;9.13;1.42;;;14.40;99.90;;;;;;5065859;28;20029;-69
2021/08/09 01:20:48;;;;;;;10.52;1.40;;;14.40;99.90;;;;;;5068523;28;20115;-68
2021/08/09 01:23:37;;;;;;;12.18;1.90;;;14.40;99.90;;;;;;5069171;28;20031;-69
2021/08/09 01:26:12;;;;;;;17.10;1.67;;;14.30;99.90;;;;;;5069214;28;20051;-68
2021/08/09 01:28:38;;;;;;;9.40;1.38;;;14.30;99.90;;;;;;5068458;28;20025;-68
2021/08/09 01:31:04;;;;;;;10.35;1.90;;;14.30;99.90;;;;;;5068866;28;20029;-68
2021/08/09 01:33:33;;;;;;;8.05;1.63;;;14.40;99.90;;;;;;5068653;28;20033;-68
2021/08/09 01:35:59;;;;;;;11.90;1.75;;;14.30;99.90;;;;;;5068651;28;20025;-68
2021/08/09 01:38:26;;;;;;;11.93;2.92;;;14.30;99.90;;;;;;5064944;28;20484;-68
2021/08/09 01:40:56;;;;;;;10.32;1.35;;;14.20;99.90;;;;;;5067463;28;20060;-68
2021/08/09 01:43:24;;;;;;;13.77;1.85;;;14.30;99.90;;;;;;5068535;28;20051;-69
2021/08/09 01:45:53;;;;;;;8.10;1.30;;;14.20;99.90;;;;;;5068165;28;20024;-68
2021/08/09 01:48:19;;;;;;;9.82;1.55;;;14.20;99.90;;;;;;5068201;28;20025;-69
2021/08/09 01:50:45;;;;;;;12.23;1.92;;;14.20;99.90;;;;;;5068870;28;20032;-68
2021/08/09 01:53:12;;;;;;;9.20;1.63;;;14.20;99.90;;;;;;5068472;28;20035;-68
2021/08/09 01:55:39;;;;;;;14.10;2.40;;;14.10;99.90;;;;;;5066650;28;20036;-68
2021/08/09 01:58:04;;;;;;;8.30;1.73;;;14.10;99.90;;;;;;5068126;28;20033;-68
2021/08/09 02:00:31;;;;;;;11.77;1.80;;;14.00;99.90;;;;;;5068390;28;20025;-68
2021/08/09 02:02:56;;;;;;;5.90;1.77;;;14.10;99.90;;;;;;5068669;28;20117;-68
2021/08/09 02:05:23;;;;;;;12.65;2.00;;;14.00;99.90;;;;;;5068376;28;20492;-69
2021/08/09 02:07:50;;;;;;;11.57;1.92;;;14.00;99.90;;;;;;5067284;28;20080;-68
2021/08/09 02:10:27;;;;;;;7.78;2.67;;;14.00;99.90;;;;;;5068677;28;20067;-69
2021/08/09 02:13:09;;;;;;;12.45;2.03;;;14.00;99.90;;;;;;5087897;28;20032;-68
2021/08/09 02:15:54;;;;;;;10.73;1.73;;;14.10;99.90;;;;;;5081290;28;20036;-69
2021/08/09 02:18:35;;;;;;;11.50;2.10;;;14.00;99.90;;;;;;5078355;28;20032;-68
2021/08/09 02:21:08;;;;;;;14.50;1.60;;;14.10;99.90;;;;;;5056172;28;20037;-68
2021/08/09 02:23:55;;;;;;;8.52;1.65;;;14.00;99.90;;;;;;5068759;28;20090;-68
2021/08/09 02:26:29;;;;;;;8.93;1.63;;;14.00;99.90;;;;;;5068196;28;20409;-68
2021/08/09 02:29:03;;;;;;;16.63;2.40;;;14.10;99.90;;;;;;5059842;28;20020;-68
2021/08/09 02:31:30;;;;;;;18.27;1.80;;;14.00;99.90;;;;;;5068093;28;20111;-68
2021/08/09 02:33:57;;;;;;;6.00;1.70;;;14.10;99.90;;;;;;5067513;28;20033;-68
2021/08/09 02:36:23;;;;;;;15.75;1.75;;;14.00;99.90;;;;;;5062547;28;20481;-68
2021/08/09 02:38:49;;;;;;;10.18;1.85;;;14.10;99.90;;;;;;5066968;28;20033;-68
2021/08/09 02:41:15;;;;;;;13.90;1.80;;;14.00;99.90;;;;;;5067686;28;20036;-68
2021/08/09 02:43:41;;;;;;;10.98;1.60;;;14.00;99.90;;;;;;5066254;28;20552;-68
2021/08/09 02:46:06;;;;;;;12.15;2.50;;;14.10;99.90;;;;;;5067831;28;20040;-68
2021/08/09 02:48:33;;;;;;;14.98;2.60;;;14.10;99.90;;;;;;5087827;28;20036;-68
2021/08/09 02:50:59;;;;;;;14.70;1.77;;;14.10;99.90;;;;;;5088297;28;20074;-69
2021/08/09 02:53:26;;;;;;;13.32;1.40;;;14.10;99.90;;;;;;5078141;28;20050;-68
2021/08/09 02:55:54;;;;;;;4.70;1.45;;;14.10;99.90;;;;;;5088175;28;20024;-69
2021/08/09 02:58:22;;;;;;;10.45;1.85;;;14.00;99.90;;;;;;5088211;28;20127;-68
2021/08/09 03:00:49;;;;;;;14.13;2.20;;;14.10;99.90;;;;;;5088229;28;20122;-68
2021/08/09 03:03:21;;;;;;;13.98;2.20;;;14.10;99.90;;;;;;5087891;28;20703;-68
2021/08/09 03:05:51;;;;;;;12.98;1.80;;;14.10;99.90;;;;;;5079045;28;20413;-68
2021/08/09 03:08:18;;;;;;;13.20;1.90;;;14.10;99.90;;;;;;5087927;28;20054;-68
2021/08/09 03:10:44;;;;;;;9.98;1.75;;;14.10;99.90;;;;;;5091376;28;20040;-68
2021/08/09 03:13:11;;;;;;;7.57;1.17;;;14.10;99.90;;;;;;5091964;28;20075;-68
2021/08/09 03:15:37;;;;;;;6.57;1.88;;;14.10;99.90;;;;;;5091067;28;20484;-69
2021/08/09 03:18:03;;;;;;;9.60;1.48;;;14.10;99.90;;;;;;5081717;28;20476;-68
2021/08/09 03:20:30;;;;;;;9.88;1.58;;;14.10;99.90;;;;;;5091556;28;20028;-69
2021/08/09 03:22:56;;;;;;;14.98;2.25;;;14.00;99.90;;;;;;5081418;28;20131;-68
2021/08/09 03:25:22;;;;;;;7.82;1.63;;;14.00;99.90;;;;;;5091215;28;20415;-68
2021/08/09 03:27:47;;;;;;;5.57;1.58;;;14.00;99.90;;;;;;5091650;28;20100;-68
2021/08/09 03:30:13;;;;;;;16.35;2.90;;;14.10;99.90;;;;;;5091298;28;20078;-69
2021/08/09 03:32:38;;;;;;;8.98;1.88;;;14.10;99.90;;;;;;5091164;28;20082;-68
2021/08/09 03:35:04;;;;;;;13.10;2.10;;;14.10;99.90;;;;;;5091512;28;20032;-68
2021/08/09 03:37:30;;;;;;;10.05;1.80;;;14.10;99.90;;;;;;5083528;28;20032;-68
2021/08/09 03:39:56;;;;;;;15.02;2.60;;;14.10;99.90;;;;;;5091160;28;20131;-68
2021/08/09 03:42:22;;;;;;;9.05;1.63;;;14.10;99.90;;;;;;5090796;28;20096;-69
2021/08/09 03:44:48;;;;;;;14.15;1.50;;;14.10;99.90;;;;;;5091156;28;20118;-68
2021/08/09 03:47:14;;;;;;;13.63;1.65;;;14.10;99.90;;;;;;5081170;28;20132;-68
2021/08/09 03:49:39;;;;;;;7.07;1.25;;;14.20;99.90;;;;;;5090386;28;20123;-69
2021/08/09 03:52:05;;;;;;;9.48;1.50;;;14.10;99.90;;;;;;5091380;28;20045;-68
2021/08/09 03:54:31;;;;;;;8.18;2.25;;;14.10;99.90;;;;;;5081201;28;20469;-68
2021/08/09 03:56:56;;;;;;;8.90;1.45;;;14.10;99.90;;;;;;5090747;28;20468;-68
2021/08/09 03:59:22;;;;;;;11.95;1.77;;;14.10;99.90;;;;;;5081138;28;20046;-69
2021/08/09 04:01:49;;;;;;;13.82;1.98;;;14.00;99.90;;;;;;5057210;28;20036;-69
2021/08/09 04:04:15;;;;;;;10.85;1.30;;;14.00;99.90;;;;;;5070808;28;20135;-68
2021/08/09 04:06:41;;;;;;;11.27;2.95;;;14.00;99.90;;;;;;5069996;28;20040;-69
2021/08/09 04:09:07;;;;;;;10.50;1.67;;;14.00;99.90;;;;;;5070908;28;20032;-68
2021/08/09 04:11:33;;;;;;;8.52;1.42;;;14.00;99.90;;;;;;5070404;28;20052;-68
2021/08/09 04:14:01;;;;;;;11.48;1.90;;;14.00;99.90;;;;;;5070831;28;20640;-69
2021/08/09 04:16:27;;;;;;;12.50;2.45;;;14.00;99.90;;;;;;5070445;28;20028;-68
2021/08/09 04:18:53;;;;;;;12.82;2.20;;;14.00;99.90;;;;;;5070772;28;20063;-68
2021/08/09 04:21:19;;;;;;;19.13;2.13;;;14.00;99.90;;;;;;5069865;28;20032;-69
2021/08/09 04:23:44;;;;;;;11.52;1.42;;;14.00;99.90;;;;;;5070048;28;20716;-68
2021/08/09 04:26:10;;;;;;;13.98;1.70;;;14.00;99.90;;;;;;5070451;28;20481;-68
2021/08/09 04:28:36;;;;;;;12.50;1.95;;;14.00;99.90;;;;;;5060149;28;20469;-69
2021/08/09 04:31:01;;;;;;;11.27;1.95;;;14.00;99.90;;;;;;5069396;28;20033;-68
2021/08/09 04:33:27;;;;;;;9.82;1.88;;;14.10;99.90;;;;;;5056055;28;20135;-69
2021/08/09 04:35:52;;;;;;;12.65;1.90;;;14.10;99.90;;;;;;5069098;28;20040;-68
2021/08/09 04:38:18;;;;;;;9.02;2.20;;;14.00;99.90;;;;;;5067898;28;20532;-69
2021/08/09 04:40:43;;;;;;;10.32;1.88;;;14.00;99.90;;;;;;5053172;28;20770;-69
2021/08/09 04:43:09;;;;;;;11.30;2.05;;;14.10;99.90;;;;;;5053521;28;20040;-68
2021/08/09 04:45:35;;;;;;;9.88;2.45;;;14.00;99.90;;;;;;5069359;28;20579;-69
2021/08/09 04:48:00;;;;;;;7.65;1.45;;;14.10;99.90;;;;;;5069265;28;20032;-68
2021/08/09 04:50:26;;;;;;;8.55;1.40;;;14.10;99.90;;;;;;5069686;28;20442;-68
2021/08/09 04:52:51;;;;;;;8.57;1.63;;;14.10;99.90;;;;;;5069258;28;20039;-69
2021/08/09 04:55:17;;;;;;;8.95;1.80;;;14.20;99.90;;;;;;5069261;28;20020;-68
2021/08/09 04:57:42;;;;;;;17.58;2.25;;;14.10;99.90;;;;;;5069264;28;20063;-69
2021/08/09 05:00:08;;;;;;;12.35;2.20;;;14.20;99.90;;;;;;5070083;28;20507;-68
2021/08/09 05:02:37;;;;;;;10.35;1.88;;;14.20;99.90;;;;;;5062224;28;20040;-69
2021/08/09 05:05:04;;;;;;;9.20;2.35;;;14.30;99.90;;;;;;5068256;28;20507;-69
2021/08/09 05:07:30;;;;;;;6.18;1.50;;;14.30;99.90;;;;;;5068330;28;20051;-68
2021/08/09 05:09:55;;;;;;;8.63;1.52;;;14.30;99.90;;;;;;5067770;28;20029;-68
2021/08/09 05:12:21;;;;;;;10.20;1.90;;;14.30;99.90;;;;;;5066043;28;20040;-68
2021/08/09 05:14:46;;;;;;;7.28;1.75;;;14.30;99.90;;;;;;5064329;28;20057;-69
2021/08/09 05:17:12;;;;;;;14.20;2.35;;;14.30;99.90;;;;;;5064977;28;20447;-68
2021/08/09 05:19:38;;;;;;;11.68;2.00;;;14.30;99.90;;;;;;5067498;28;20497;-68
2021/08/09 05:22:04;;;;;;;7.22;1.77;;;14.40;99.90;;;;;;5066981;28;20029;-68
2021/08/09 05:24:30;;;;;;;9.82;1.50;;;14.40;99.90;;;;;;5068210;28;20041;-68
2021/08/09 05:26:56;;;;;;;7.22;1.67;;;14.50;99.90;;;;;;5067840;28;20519;-68
2021/08/09 05:29:22;;;;;;;9.07;2.50;;;14.50;99.90;;;;;;5066439;28;20471;-68
2021/08/09 05:31:48;;;;;;;11.75;1.77;;;14.40;99.90;;;;;;5067304;28;20021;-69
2021/08/09 05:34:13;;;;;;;10.50;1.45;;;14.50;99.90;;;;;;5065575;28;20120;-68
2021/08/09 05:36:39;;;;;;;7.30;1.42;;;14.50;99.90;;;;;;5064981;28;20056;-68
2021/08/09 05:39:05;;;;;;;8.23;2.00;;;14.40;99.90;;;;;;5065837;28;20104;-68
2021/08/09 05:41:33;;;;;;;10.25;1.80;;;14.40;99.90;;;;;;5066254;28;20068;-68
2021/08/09 05:43:58;;;;;;;9.73;2.15;;;14.50;99.90;;;;;;5065366;28;20054;-69
2021/08/09 05:46:24;;;;;;;9.68;1.40;;;14.50;99.90;;;;;;5065768;28;20507;-69
2021/08/09 05:48:50;;;;;;;7.93;1.92;;;14.40;99.90;;;;;;5067971;28;20046;-69
2021/08/09 05:51:15;;;;;;;10.45;1.45;;;14.50;99.90;;;;;;5067629;28;20033;-68
2021/08/09 05:53:41;;;;;;;6.78;1.55;;;14.50;99.90;;;;;;5067762;28;20028;-68
2021/08/09 05:56:07;;;;;;;7.22;1.33;;;14.60;99.90;;;;;;5064251;28;20481;-68
2021/08/09 05:58:32;;;;;;;9.52;1.70;;;14.70;99.90;;;;;;5066195;28;20572;-68
2021/08/09 06:00:58;;;;;;;6.10;1.42;;;14.80;99.90;;;;;;5066914;28;20024;-68
2021/08/09 06:03:23;;;;;;;6.65;1.48;;;15.00;99.90;;;;;;5066664;28;20422;-68
2021/08/09 06:05:53;;;;;;;5.53;1.20;;;15.10;99.90;;;;;;5066249;28;20077;-69
2021/08/09 06:08:19;;;;;;;5.57;1.23;;;15.30;99.90;;;;;;5087972;28;20055;-68
2021/08/09 06:10:45;;;;;;;7.38;2.15;;;15.50;99.90;;;;;;5087914;28;20052;-68
2021/08/09 06:13:10;;;;;;;4.75;1.17;;;15.70;99.90;;;;;;5086157;28;20036;-68
2021/08/09 06:15:36;;;;;;;3.53;0.80;;;16.00;99.90;;;;;;5076801;28;20400;-69
2021/08/09 06:18:01;;;;;;;8.73;1.42;;;16.20;99.90;;;;;;5070043;28;20036;-69
2021/08/09 06:20:27;;;;;;;9.18;1.50;;;16.40;99.90;;;;;;5063817;28;20052;-68
2021/08/09 06:22:53;;;;;;;8.13;1.42;;;16.60;99.90;;;;;;5064063;28;20105;-68
2021/08/09 06:25:18;;;;;;;6.65;1.27;;;16.70;99.90;;;;;;5066211;28;20029;-68
2021/08/09 06:27:45;;;;;;;6.72;1.23;;;16.90;99.90;;;;;;5067461;28;20493;-68
2021/08/09 06:30:11;;;;;;;8.75;1.30;;;16.90;99.90;;;;;;5064684;28;20041;-68
2021/08/09 06:32:36;;;;;;;3.50;1.10;;;16.90;99.90;;;;;;5065601;28;20083;-68
2021/08/09 06:35:03;;;;;;;2.72;0.90;;;16.90;99.90;;;;;;5065350;28;20029;-69
2021/08/09 06:37:29;;;;;;;6.40;1.17;;;16.80;99.90;;;;;;5066565;28;20370;-69
2021/08/09 06:39:54;;;;;;;4.15;1.40;;;16.80;99.90;;;;;;5064877;28;20062;-68
2021/08/09 06:42:20;;;;;;;9.85;1.75;;;16.70;99.90;;;;;;5065084;28;20067;-72
2021/08/09 06:44:46;;;;;;;4.85;1.27;;;16.80;99.90;;;;;;5068748;28;20483;-68
2021/08/09 06:47:11;;;;;;;4.00;0.55;;;17.00;99.90;;;;;;5070388;28;20403;-69
2021/08/09 06:49:37;;;;;;;7.13;1.63;;;17.60;99.90;;;;;;5070373;28;20040;-69
2021/08/09 06:52:04;;;;;;;4.95;0.88;;;18.00;99.90;;;;;;5070327;28;20108;-71
2021/08/09 06:54:30;;;;;;;4.78;1.27;;;18.10;99.90;;;;;;5068831;28;20060;-69
2021/08/09 06:56:56;;;;;;;12.68;1.35;;;18.00;99.90;;;;;;5070750;28;20032;-69
2021/08/09 06:59:22;;;;;;;10.02;1.40;;;18.20;99.90;;;;;;5070524;28;20043;-69
2021/08/09 07:01:47;;;;;;;4.10;0.98;;;18.60;99.90;;;;;;5069599;28;20485;-69
2021/08/09 07:04:13;;;;;;;7.07;0.90;;;19.00;99.90;;;;;;5069582;28;20447;-69
2021/08/09 07:06:38;;;;;;;7.10;1.23;;;19.90;99.90;;;;;;5069261;28;20439;-69
2021/08/09 07:09:04;;;;;;;12.43;1.67;;;20.70;99.90;;;;;;5069592;28;20128;-69
2021/08/09 07:11:30;;;;;;;5.13;1.10;;;21.40;99.90;;;;;;5068428;28;20488;-69
2021/08/09 07:13:56;;;;;;;4.18;1.08;;;22.30;99.90;;;;;;5069910;28;20036;-69
2021/08/09 07:16:25;;;;;;;4.38;0.98;;;22.90;99.90;;;;;;5069493;28;20082;-69
2021/08/09 07:18:52;;;;;;;6.35;1.05;;;23.50;99.90;;;;;;5070014;28;20045;-69
2021/08/09 07:21:18;;;;;;;5.20;0.82;;;24.00;99.90;;;;;;5067869;28;20048;-70
2021/08/09 07:23:44;;;;;;;5.70;1.52;;;23.60;99.90;;;;;;5070399;28;20028;-69
2021/08/09 07:26:10;;;;;;;4.90;0.95;;;23.80;99.90;;;;;;5069138;28;20094;-70
2021/08/09 07:28:36;;;;;;;3.55;0.70;;;23.80;99.90;;;;;;5069220;28;20060;-70
2021/08/09 07:31:02;;;;;;;6.32;0.98;;;24.30;99.90;;;;;;5070196;28;20493;-69
2021/08/09 07:33:28;;;;;;;4.72;1.00;;;24.80;99.90;;;;;;5069996;28;20036;-69
2021/08/09 07:35:54;;;;;;;7.32;1.30;;;24.80;99.90;;;;;;5068160;28;20041;-69
2021/08/09 07:38:19;;;;;;;7.55;1.25;;;24.30;99.90;;;;;;5069708;28;20020;-69
2021/08/09 07:40:45;;;;;;;6.80;1.42;;;24.10;99.90;;;;;;5070009;28;20085;-69
2021/08/09 07:43:11;;;;;;;3.65;0.88;;;24.30;99.90;;;;;;5069883;28;20033;-69
2021/08/09 07:45:36;;;;;;;8.63;1.83;;;24.80;99.90;;;;;;5069660;28;20048;-69
2021/08/09 07:48:03;;;;;;;7.22;1.33;;;25.00;99.90;;;;;;5069730;28;21025;-69
2021/08/09 07:50:30;;;;;;;4.78;1.05;;;25.10;99.10;;;;;;5069109;28;20041;-69
2021/08/09 07:52:55;;;;;;;7.03;1.48;;;24.90;99.90;;;;;;5068496;28;20117;-69
2021/08/09 07:55:21;;;;;;;6.88;1.75;;;24.30;99.90;;;;;;5068329;28;20191;-69
2021/08/09 07:57:46;;;;;;;4.22;0.73;;;23.90;99.90;;;;;;5068514;28;20120;-69
2021/08/09 08:00:14;;;;;;;2.97;0.63;;;23.10;99.90;;;;;;5069207;28;20032;-69
2021/08/09 08:02:40;;;;;;;2.67;0.55;;;22.30;99.90;;;;;;5068405;28;20040;-69
2021/08/09 08:05:06;;;;;;;3.95;1.23;;;21.50;99.90;;;;;;5068650;28;20051;-69
2021/08/09 08:07:32;;;;;;;2.25;0.70;;;21.00;99.90;;;;;;5066771;28;20032;-69
2021/08/09 08:09:58;;;;;;;2.75;0.90;;;20.50;99.90;;;;;;5069007;28;20119;-69
2021/08/09 08:12:24;;;;;;;3.88;1.25;;;20.20;99.90;;;;;;5068513;28;20139;-69
2021/08/09 08:14:50;;;;;;;7.93;0.85;;;19.90;99.90;;;;;;5068580;28;20614;-69
2021/08/09 08:17:15;;;;;;;6.32;1.13;;;19.60;99.90;;;;;;5068008;28;20512;-69
2021/08/09 08:19:41;;;;;;;7.10;1.00;;;19.50;99.90;;;;;;5064066;28;20639;-69
2021/08/09 08:22:07;;;;;;;5.88;0.80;;;19.40;99.90;;;;;;5068449;28;20041;-69
2021/08/09 08:24:32;;;;;;;6.75;0.85;;;19.20;99.90;;;;;;5068313;28;20033;-69
2021/08/09 08:26:58;;;;;;;3.45;0.82;;;19.20;99.90;;;;;;5062987;28;20056;-69
2021/08/09 08:29:24;;;;;;;3.53;0.95;;;19.10;99.90;;;;;;5067020;28;20041;-69
2021/08/09 08:31:49;;;;;;;3.13;0.63;;;19.30;99.90;;;;;;5068467;28;20033;-69
2021/08/09 08:34:15;;;;;;;4.35;0.88;;;19.40;99.90;;;;;;5064067;28;20032;-69
2021/08/09 08:36:40;;;;;;;5.40;0.85;;;19.40;99.90;;;;;;5061598;28;20044;-68
2021/08/09 08:39:10;;;;;;;5.68;0.90;;;19.50;99.90;;;;;;5063911;28;20044;-69
2021/08/09 08:41:36;;;;;;;2.42;0.60;;;19.60;99.90;;;;;;5063344;28;20063;-69
2021/08/09 08:44:02;;;;;;;3.83;0.73;;;19.60;99.90;;;;;;5066498;28;20075;-69
2021/08/09 08:46:28;;;;;;;2.47;0.50;;;19.70;99.90;;;;;;5065618;28;20485;-69
2021/08/09 08:48:58;;;;;;;5.47;0.73;;;19.90;99.90;;;;;;5066731;28;20060;-69
2021/08/09 08:51:24;;;;;;;4.68;0.60;;;19.90;99.90;;;;;;5067585;28;20511;-69
2021/08/09 08:53:50;;;;;;;4.68;0.70;;;20.00;99.90;;;;;;5067820;28;20098;-69
2021/08/09 08:56:15;;;;;;;5.68;0.63;;;19.90;99.90;;;;;;5067704;28;20032;-69
2021/08/09 08:58:41;;;;;;;3.53;0.75;;;19.90;99.90;;;;;;5066002;28;20024;-69
2021/08/09 09:01:07;;;;;;;2.22;0.32;;;19.80;99.90;;;;;;5066461;28;20044;-69
2021/08/09 09:03:39;;;;;;;1.58;0.47;;;19.70;99.90;;;;;;5066104;28;20032;-69
2021/08/09 09:06:10;;;;;;;4.28;0.60;;;19.70;99.90;;;;;;5066868;28;21024;-69
2021/08/09 09:08:47;;;;;;;3.38;1.05;;;19.70;99.90;;;;;;5066626;28;20033;-69
2021/08/09 09:11:33;;;;;;;3.65;0.73;;;19.80;99.90;;;;;;5065468;28;20082;-69
2021/08/09 09:14:04;;;;;;;2.03;0.45;;;19.80;99.90;;;;;;5065842;28;20036;-69
2021/08/09 09:16:50;;;;;;;3.83;0.68;;;19.80;99.90;;;;;;5067620;28;20050;-69
2021/08/09 09:19:37;;;;;;;6.15;0.85;;;19.80;99.90;;;;;;5067401;28;20031;-69
2021/08/09 09:22:24;;;;;;;4.35;1.05;;;19.90;99.90;;;;;;5067549;28;20045;-69
2021/08/09 09:24:52;;;;;;;3.63;0.60;;;19.80;99.90;;;;;;5066379;28;20097;-69
2021/08/09 09:27:30;;;;;;;4.07;1.13;;;19.90;99.90;;;;;;5077715;28;20024;-69
2021/08/09 09:29:57;;;;;;;3.03;0.73;;;19.90;99.90;;;;;;5068422;28;20418;-69
2021/08/09 09:32:23;;;;;;;7.55;0.80;;;19.90;99.90;;;;;;5069486;28;20412;-69
2021/08/09 09:34:51;;;;;;;6.55;0.63;;;20.10;99.90;;;;;;5068813;28;20031;-69
2021/08/09 09:37:29;;;;;;;4.40;0.80;;;20.10;99.90;;;;;;5065603;28;20033;-69
2021/08/09 09:40:20;;;;;;;2.90;0.60;;;20.20;99.90;;;;;;5067344;28;20047;-69
2021/08/09 09:42:47;;;;;;;3.53;1.02;;;20.40;99.90;;;;;;5066607;28;20418;-68
2021/08/09 09:45:27;;;;;;;3.78;0.77;;;20.60;99.90;;;;;;5067508;28;20576;-69
2021/08/09 09:48:06;;;;;;;0.98;0.40;;;20.70;99.90;;;;;;5069620;28;20127;-69
2021/08/09 09:50:35;;;;;;;1.88;0.60;;;20.70;99.90;;;;;;5066313;28;20475;-69
2021/08/09 09:53:15;;;;;;;4.93;1.65;;;20.90;99.90;;;;;;5065924;28;20161;-69
2021/08/09 09:55:47;;;;;;;3.45;1.02;;;21.00;99.90;;;;;;5068285;28;20032;-69
2021/08/09 09:58:12;;;;;;;4.00;0.52;;;21.00;99.90;;;;;;5066610;28;20047;-69
2021/08/09 10:00:40;;;;;;;3.83;0.90;;;21.20;99.90;;;;;;5067856;28;20032;-70
2021/08/09 10:03:05;;;;;;;2.08;0.60;;;21.20;99.90;;;;;;5065781;28;20045;-68
2021/08/09 10:05:34;;;;;;;4.10;0.73;;;21.00;99.90;;;;;;5067919;28;20045;-69
2021/08/09 10:08:02;;;;;;;2.35;0.77;;;20.90;99.90;;;;;;5063275;28;20081;-69
2021/08/09 10:10:28;;;;;;;5.78;0.70;;;20.60;99.90;;;;;;5068588;28;20074;-69
2021/08/09 10:12:54;;;;;;;4.82;0.90;;;20.70;99.90;;;;;;5066942;28;20025;-69
2021/08/09 10:15:21;;;;;;;3.55;0.93;;;20.70;99.90;;;;;;5066952;28;20487;-69
2021/08/09 10:17:48;;;;;;;4.22;0.85;;;20.60;99.90;;;;;;5065111;28;20037;-69
2021/08/09 10:20:16;;;;;;;6.45;0.95;;;20.50;99.90;;;;;;5066334;28;20405;-69
2021/08/09 10:22:55;;;;;;;3.53;0.73;;;20.40;99.90;;;;;;5064050;28;20036;-69
2021/08/09 10:25:45;;;;;;;4.50;0.77;;;20.50;99.90;;;;;;5066874;28;20067;-69
2021/08/09 10:28:11;;;;;;;2.53;0.47;;;20.60;99.90;;;;;;5067141;28;20604;-68
2021/08/09 10:30:37;;;;;;;3.42;0.60;;;20.50;99.90;;;;;;5067641;28;20124;-68
2021/08/09 10:33:10;;;;;;;6.25;0.63;;;20.70;99.90;;;;;;5056112;28;20539;-69
2021/08/09 10:35:40;;;;;;;3.38;0.65;;;20.70;99.90;;;;;;5061973;28;20120;-68
2021/08/09 10:38:13;;;;;;;2.07;0.70;;;20.50;99.90;;;;;;5063477;28;20120;-68
2021/08/09 10:40:38;;;;;;;2.58;0.50;;;20.30;99.90;;;;;;5065676;28;20044;-70
2021/08/09 10:43:04;;;;;;;5.20;0.75;;;20.10;99.90;;;;;;5063788;28;20040;-68
2021/08/09 10:45:44;;;;;;;1.08;0.45;;;20.00;99.90;;;;;;5064458;28;20043;-70
2021/08/09 10:48:11;;;;;;;2.70;0.57;;;19.80;99.90;;;;;;5063055;28;20103;-68
2021/08/09 10:50:40;;;;;;;3.72;0.80;;;19.90;99.90;;;;;;5063169;28;20102;-68
2021/08/09 10:53:28;;;;;;;6.70;1.00;;;19.90;99.90;;;;;;5064840;28;20040;-68
2021/08/09 10:55:55;;;;;;;4.18;0.90;;;19.90;99.90;;;;;;5065343;28;20052;-69
2021/08/09 10:58:43;;;;;;;3.42;0.73;;;19.90;99.90;;;;;;5065635;28;20515;-68
2021/08/09 11:01:13;;;;;;;3.65;0.70;;;19.90;99.90;;;;;;5068512;28;20044;-69
2021/08/09 11:04:03;;;;;;;3.83;0.70;;;19.80;99.90;;;;;;5056101;28;20033;-68
2021/08/09 11:06:52;;;;;;;4.15;1.25;;;19.80;99.90;;;;;;5058190;28;20029;-68
2021/08/09 11:09:30;;;;;;;1.65;0.50;;;19.80;99.90;;;;;;5060291;28;20095;-70
2021/08/09 11:12:18;;;;;;;4.82;0.60;;;19.70;99.90;;;;;;5070002;28;20060;-68
2021/08/09 11:15:03;;;;;;;3.83;1.15;;;19.80;99.90;;;;;;5060540;28;20467;-68
2021/08/09 11:17:32;;;;;;;3.88;0.77;;;20.10;99.90;;;;;;5059954;28;20072;-68
2021/08/09 11:20:16;;;;;;;3.70;0.77;;;20.30;99.90;;;;;;5060936;28;20032;-68
2021/08/09 11:22:45;;;;;;;4.75;0.70;;;20.60;99.90;;;;;;5062507;28;20119;-69
2021/08/09 11:25:47;;;;;;;10.10;1.10;;;20.80;99.90;;;;;;5064061;28;20110;-68
2021/08/09 11:28:16;;;;;;;1.42;0.50;;;21.00;99.90;;;;;;5016984;28;20061;-69
2021/08/09 11:30:52;;;;;;;2.08;0.68;;;21.10;99.90;;;;;;5058123;28;20564;-69
2021/08/09 11:33:25;;;;;;;1.52;0.57;;;21.10;99.90;;;;;;5067579;28;20032;-69
2021/08/09 11:35:51;;;;;;;7.05;0.93;;;21.00;99.90;;;;;;5068169;28;20115;-68
2021/08/09 11:38:17;;;;;;;2.60;0.80;;;21.00;99.90;;;;;;5068602;28;20124;-68
2021/08/09 11:40:43;;;;;;;3.17;0.63;;;20.90;99.90;;;;;;5069443;28;20252;-68
2021/08/09 11:43:11;;;;;;;6.00;0.65;;;20.70;99.90;;;;;;5071916;28;20476;-68
2021/08/09 11:45:37;;;;;;;4.22;1.65;;;20.50;99.90;;;;;;5068147;28;20040;-69
2021/08/09 11:48:03;;;;;;;1.98;0.52;;;20.30;99.90;;;;;;5068168;28;20033;-68
2021/08/09 11:50:37;;;;;;;5.07;0.52;;;20.20;99.90;;;;;;5070360;28;20389;-68
2021/08/09 11:53:04;;;;;;;1.75;0.55;;;20.20;99.90;;;;;;5069842;28;20055;-68
2021/08/09 11:55:30;;;;;;;1.58;0.52;;;20.10;99.90;;;;;;5071088;28;20103;-68
2021/08/09 11:57:56;;;;;;;5.63;0.95;;;20.10;99.90;;;;;;5069124;28;20033;-69
2021/08/09 12:00:24;;;;;;;2.17;0.47;;;20.20;99.90;;;;;;5069761;28;20047;-69
2021/08/09 12:03:12;;;;;;;1.88;0.40;;;20.50;99.90;;;;;;5071563;28;20055;-68
2021/08/09 12:05:38;;;;;;;7.10;0.98;;;20.70;99.90;;;;;;5068889;28;20040;-68
2021/08/09 12:08:05;;;;;;;1.95;0.40;;;21.00;99.90;;;;;;5069050;28;20067;-69
2021/08/09 12:10:32;;;;;;;2.92;0.45;;;21.20;99.90;;;;;;5069556;28;20120;-68
2021/08/09 12:12:59;;;;;;;1.45;0.60;;;21.40;99.90;;;;;;5070131;28;20059;-69
2021/08/09 12:15:25;;;;;;;3.47;0.95;;;21.50;99.90;;;;;;5067922;28;20036;-69
2021/08/09 12:18:08;;;;;;;3.03;0.43;;;21.60;99.90;;;;;;5068616;28;20028;-68
2021/08/09 12:20:35;;;;;;;6.93;0.90;;;21.60;99.90;;;;;;5066952;28;20396;-69
2021/08/09 12:23:01;;;;;;;3.08;0.60;;;21.60;99.90;;;;;;5067818;28;20064;-68
2021/08/09 12:25:38;;;;;;;1.10;0.32;;;21.60;99.90;;;;;;5068959;28;20036;-69
2021/08/09 12:28:06;;;;;;;3.97;0.90;;;21.40;99.90;;;;;;5067763;28;20036;-68
2021/08/09 12:30:54;;;;;;;6.93;1.35;;;21.30;99.90;;;;;;5068146;28;20036;-69
2021/08/09 12:33:20;;;;;;;1.60;0.38;;;21.40;99.90;;;;;;5067764;28;20028;-69
2021/08/09 12:35:46;;;;;;;5.18;0.40;;;21.30;99.90;;;;;;5066590;28;20112;-69
2021/08/09 12:38:14;;;;;;;5.95;0.60;;;21.30;99.90;;;;;;5069307;28;20040;-68
2021/08/09 12:40:44;;;;;;;2.78;0.60;;;21.30;99.90;;;;;;5071025;28;20059;-69
2021/08/09 12:43:18;;;;;;;2.20;0.40;;;21.40;99.90;;;;;;5066196;28;20044;-69
2021/08/09 12:45:44;;;;;;;2.58;0.60;;;21.50;99.90;;;;;;5069297;28;20036;-69
2021/08/09 12:48:11;;;;;;;2.95;0.57;;;21.60;99.90;;;;;;5067108;28;20067;-69
2021/08/09 12:50:39;;;;;;;2.15;0.73;;;21.60;99.90;;;;;;5067432;28;20531;-69